Time;durP1;ratioP1;P1;durP2;ratioP2;P2;SDS_P1;SDS_P2;PMS_P1;PMS_P2;Temp;Humidity;BMP_temperature;BMP_pressure;BME280_temperature;BME280_humidity;BME280_pressure;Samples;Min_cycle;Max_cycle;Signal;HPM_P1;HPM_P2
2022/04/07 00:01:36;;;;;;;7.18;3.45;;;;;;;0.28;68.26;98360.09;5011385;28;20057;-67
2022/04/07 00:04:04;;;;;;;6.35;2.90;;;;;;;0.32;68.48;98364.69;5012392;28;20046;-68
2022/04/07 00:06:31;;;;;;;3.15;1.90;;;;;;;0.35;68.27;98358.63;5011986;28;20058;-68
2022/04/07 00:09:02;;;;;;;4.22;2.40;;;;;;;0.42;68.02;98364.56;5012508;28;20074;-68
2022/04/07 00:11:30;;;;;;;3.20;2.08;;;;;;;0.37;68.21;98372.00;5012174;28;20107;-67
2022/04/07 00:13:57;;;;;;;5.03;2.80;;;;;;;0.33;68.62;98368.25;5011140;28;20050;-62
2022/04/07 00:16:24;;;;;;;4.40;2.13;;;;;;;0.35;68.20;98376.97;5011577;28;20145;-63
2022/04/07 00:18:51;;;;;;;4.72;2.38;;;;;;;0.38;68.25;98373.66;5012075;28;20441;-62
2022/04/07 00:21:24;;;;;;;9.35;2.40;;;;;;;0.30;68.59;98371.56;5012255;28;20081;-63
2022/04/07 00:23:54;;;;;;;4.50;2.67;;;;;;;0.27;68.48;98361.22;5012287;28;20056;-63
2022/04/07 00:26:21;;;;;;;5.78;2.88;;;;;;;0.24;68.60;98368.09;5011826;28;20144;-62
2022/04/07 00:28:51;;;;;;;4.10;2.13;;;;;;;0.25;68.45;98369.72;5012126;28;20045;-62
2022/04/07 00:31:18;;;;;;;5.00;2.60;;;;;;;0.30;68.40;98377.84;5012119;28;20053;-62
2022/04/07 00:33:45;;;;;;;7.57;2.45;;;;;;;0.32;68.27;98372.09;5011288;28;20135;-63
2022/04/07 00:36:12;;;;;;;4.60;2.63;;;;;;;0.30;68.41;98372.38;5016377;28;20082;-62
2022/04/07 00:38:39;;;;;;;4.47;2.22;;;;;;;0.30;68.62;98377.84;5011574;28;20088;-62
2022/04/07 00:41:06;;;;;;;5.00;2.40;;;;;;;0.31;68.50;98375.91;5011749;28;20129;-62
2022/04/07 00:43:34;;;;;;;4.82;2.45;;;;;;;0.28;68.46;98368.28;5010378;28;20058;-62
2022/04/07 00:46:03;;;;;;;4.80;2.30;;;;;;;0.19;68.99;98368.16;5015698;28;20125;-62
2022/04/07 00:48:35;;;;;;;4.80;2.38;;;;;;;0.21;68.56;98352.28;5013546;28;20455;-62
2022/04/07 00:51:05;;;;;;;8.40;2.50;;;;;;;0.22;69.01;98364.00;5015888;28;20053;-63
2022/04/07 00:53:32;;;;;;;6.13;2.40;;;;;;;0.24;68.93;98368.09;5014136;28;20439;-61
2022/04/07 00:56:01;;;;;;;3.88;2.40;;;;;;;0.20;68.63;98361.56;5016222;28;20089;-61
2022/04/07 00:58:33;;;;;;;3.72;2.35;;;;;;;0.20;68.95;98360.78;5015293;28;20085;-60
2022/04/07 01:01:00;;;;;;;5.68;2.80;;;;;;;0.17;68.84;98369.56;5015684;28;20088;-60
2022/04/07 01:03:27;;;;;;;7.32;2.35;;;;;;;0.18;69.24;98365.72;5014833;28;20054;-61
2022/04/07 01:05:55;;;;;;;3.58;2.17;;;;;;;0.21;69.02;98368.69;5015537;28;20132;-61
2022/04/07 01:08:22;;;;;;;4.63;2.17;;;;;;;0.28;69.05;98357.34;5014982;28;20133;-60
2022/04/07 01:10:49;;;;;;;3.83;1.95;;;;;;;0.27;69.11;98350.28;5015280;28;20167;-67
2022/04/07 01:13:16;;;;;;;4.88;2.60;;;;;;;0.35;69.02;98357.81;5014904;28;20420;-67
2022/04/07 01:15:43;;;;;;;4.43;2.13;;;;;;;0.41;69.05;98357.44;5015265;28;20128;-67
2022/04/07 01:18:11;;;;;;;3.63;2.30;;;;;;;0.35;68.90;98360.56;5014972;28;20053;-67
2022/04/07 01:20:38;;;;;;;5.63;2.22;;;;;;;0.24;69.38;98357.16;5015441;28;20088;-67
2022/04/07 01:23:07;;;;;;;5.63;2.65;;;;;;;0.23;69.60;98363.72;5013838;28;20087;-66
2022/04/07 01:25:36;;;;;;;4.47;2.10;;;;;;;0.26;69.29;98360.38;5014940;28;20569;-67
2022/04/07 01:28:03;;;;;;;3.55;1.80;;;;;;;0.27;69.21;98359.31;5015261;28;20188;-67
2022/04/07 01:30:30;;;;;;;4.90;2.33;;;;;;;0.29;69.56;98359.81;5014733;28;20516;-66
2022/04/07 01:33:00;;;;;;;7.60;2.70;;;;;;;0.27;69.47;98367.50;5013941;28;20555;-67
2022/04/07 01:35:27;;;;;;;4.93;2.25;;;;;;;0.18;69.81;98352.88;5013664;28;20042;-63
2022/04/07 01:37:57;;;;;;;4.20;2.35;;;;;;;0.12;70.25;98354.03;5014651;28;20133;-63
2022/04/07 01:40:35;;;;;;;5.17;2.50;;;;;;;0.15;70.02;98349.91;5014354;28;20057;-62
2022/04/07 01:43:05;;;;;;;3.92;2.05;;;;;;;0.21;69.83;98344.06;5015002;28;20133;-64
2022/04/07 01:45:33;;;;;;;7.15;3.08;;;;;;;0.24;69.97;98351.69;5014457;28;20077;-63
2022/04/07 01:48:04;;;;;;;4.13;1.85;;;;;;;0.26;69.82;98360.38;5014957;28;20053;-63
2022/04/07 01:50:32;;;;;;;3.40;2.00;;;;;;;0.27;69.95;98356.56;5014095;28;20084;-63
2022/04/07 01:52:59;;;;;;;3.38;2.17;;;;;;;0.31;69.87;98351.31;5014996;28;20045;-63
2022/04/07 01:55:27;;;;;;;4.10;2.28;;;;;;;0.34;69.83;98357.00;5012874;28;20042;-68
2022/04/07 01:57:55;;;;;;;3.50;2.10;;;;;;;0.40;69.67;98353.09;5014895;28;20081;-67
2022/04/07 02:00:22;;;;;;;6.28;2.30;;;;;;;0.46;69.85;98349.16;5013757;28;20428;-67
2022/04/07 02:02:50;;;;;;;3.30;1.95;;;;;;;0.50;69.47;98354.88;5014609;28;20046;-67
2022/04/07 02:05:17;;;;;;;4.57;2.47;;;;;;;0.46;69.81;98360.09;5013750;28;20137;-61
2022/04/07 02:07:44;;;;;;;3.30;1.88;;;;;;;0.47;69.66;98348.03;5014432;28;20139;-60
2022/04/07 02:10:14;;;;;;;4.10;2.40;;;;;;;0.50;69.58;98361.13;5012769;28;20052;-60
2022/04/07 02:12:42;;;;;;;3.08;2.00;;;;;;;0.46;70.05;98351.91;4996744;28;20060;-61
2022/04/07 02:15:11;;;;;;;3.15;1.92;;;;;;;0.39;70.06;98343.25;5010124;28;20088;-60
2022/04/07 02:17:39;;;;;;;5.72;2.40;;;;;;;0.39;70.18;98343.25;5014026;28;20042;-61
2022/04/07 02:20:09;;;;;;;4.45;2.38;;;;;;;0.46;70.17;98335.50;5012598;28;20045;-60
2022/04/07 02:22:36;;;;;;;3.75;2.13;;;;;;;0.56;70.10;98338.06;5012913;28;20489;-67
2022/04/07 02:25:04;;;;;;;4.63;2.20;;;;;;;0.64;69.47;98342.88;5014094;28;20476;-67
2022/04/07 02:27:36;;;;;;;4.78;2.10;;;;;;;0.72;69.43;98341.38;5012622;28;20050;-67
2022/04/07 02:30:05;;;;;;;6.20;3.00;;;;;;;0.77;69.78;98344.84;5012945;28;20107;-68
2022/04/07 02:32:32;;;;;;;3.80;2.33;;;;;;;0.83;69.46;98342.84;5013501;28;20129;-67
2022/04/07 02:35:00;;;;;;;6.10;2.80;;;;;;;0.85;69.52;98346.91;5013878;28;20505;-68
2022/04/07 02:37:27;;;;;;;6.22;2.55;;;;;;;0.87;69.07;98346.59;5013693;28;20630;-67
2022/04/07 02:39:56;;;;;;;5.32;2.90;;;;;;;0.92;68.98;98346.53;5013912;28;20521;-67
2022/04/07 02:42:23;;;;;;;6.43;2.75;;;;;;;0.99;69.04;98347.75;5012439;28;20062;-67
2022/04/07 02:44:50;;;;;;;5.82;3.10;;;;;;;1.04;68.83;98339.44;5013573;28;20056;-67
2022/04/07 02:47:17;;;;;;;5.45;2.88;;;;;;;1.06;68.55;98345.44;5013087;28;20077;-67
2022/04/07 02:49:46;;;;;;;4.88;2.60;;;;;;;1.09;68.89;98341.28;5013891;28;20144;-69
2022/04/07 02:52:13;;;;;;;6.72;2.67;;;;;;;1.10;68.70;98349.19;5013196;28;20045;-67
2022/04/07 02:54:40;;;;;;;9.50;3.03;;;;;;;1.10;68.66;98364.81;5013855;28;20096;-63
2022/04/07 02:57:07;;;;;;;4.65;2.97;;;;;;;0.99;69.03;98364.19;5012710;28;20074;-64
2022/04/07 02:59:34;;;;;;;4.22;2.40;;;;;;;0.91;69.09;98353.91;5011881;28;20066;-64
2022/04/07 03:02:01;;;;;;;4.07;2.67;;;;;;;0.89;69.29;98364.34;5013045;28;20046;-63
2022/04/07 03:04:28;;;;;;;5.97;2.90;;;;;;;0.94;69.11;98356.06;5013172;28;20057;-64
2022/04/07 03:06:56;;;;;;;5.72;2.75;;;;;;;1.00;69.02;98360.31;5012273;28;20453;-63
2022/04/07 03:09:23;;;;;;;6.72;3.15;;;;;;;1.07;69.02;98365.44;5012523;28;20146;-63
2022/04/07 03:11:50;;;;;;;5.43;2.72;;;;;;;1.06;68.82;98361.03;5013379;28;20056;-65
2022/04/07 03:14:17;;;;;;;5.15;2.85;;;;;;;1.03;68.59;98350.69;5012544;28;20050;-64
2022/04/07 03:16:48;;;;;;;6.38;3.45;;;;;;;1.08;68.80;98351.44;5013194;28;20049;-63
2022/04/07 03:19:16;;;;;;;7.80;3.35;;;;;;;1.14;68.58;98358.44;5012610;28;20408;-63
2022/04/07 03:21:44;;;;;;;9.65;3.03;;;;;;;1.18;68.82;98344.94;5013461;28;20555;-63
2022/04/07 03:24:12;;;;;;;5.97;3.05;;;;;;;1.17;68.75;98346.91;5011350;28;20058;-64
2022/04/07 03:26:59;;;;;;;7.03;2.92;;;;;;;1.18;68.69;98343.03;5012240;28;20061;-66
2022/04/07 03:29:28;;;;;;;4.47;2.97;;;;;;;1.25;68.29;98345.38;5012671;28;20054;-63
2022/04/07 03:31:55;;;;;;;6.13;2.92;;;;;;;1.27;68.41;98349.44;5013234;28;20042;-64
2022/04/07 03:34:22;;;;;;;6.63;3.22;;;;;;;1.32;68.69;98352.09;5012449;28;20050;-63
2022/04/07 03:36:49;;;;;;;7.18;3.78;;;;;;;1.38;68.29;98350.88;5012594;28;20064;-62
2022/04/07 03:39:16;;;;;;;5.80;3.17;;;;;;;1.41;68.18;98336.59;5012235;28;20148;-63
2022/04/07 03:41:43;;;;;;;5.75;3.10;;;;;;;1.41;68.04;98338.50;5012819;28;20385;-64
2022/04/07 03:44:11;;;;;;;5.38;2.97;;;;;;;1.37;68.49;98332.84;5012158;28;20041;-63
2022/04/07 03:46:38;;;;;;;10.35;3.53;;;;;;;1.31;68.55;98331.31;5013031;28;20046;-63
2022/04/07 03:49:05;;;;;;;7.22;2.88;;;;;;;1.37;68.64;98335.56;5011033;28;20046;-63
2022/04/07 03:51:32;;;;;;;4.95;3.03;;;;;;;1.43;68.67;98331.63;5012845;28;20408;-64
2022/04/07 03:53:59;;;;;;;5.72;3.35;;;;;;;1.52;68.22;98328.97;5012024;28;20576;-64
2022/04/07 03:56:26;;;;;;;6.47;3.50;;;;;;;1.62;67.94;98326.84;5012265;28;20149;-63
2022/04/07 03:58:53;;;;;;;6.43;3.80;;;;;;;1.74;67.93;98335.38;5011510;28;20080;-63
2022/04/07 04:01:20;;;;;;;5.53;3.40;;;;;;;1.81;67.58;98324.03;5012362;28;20058;-63
2022/04/07 04:03:47;;;;;;;6.72;4.00;;;;;;;1.96;67.82;98339.31;5012054;28;20058;-63
2022/04/07 04:06:15;;;;;;;8.43;4.88;;;;;;;2.00;67.41;98324.69;5010868;28;20064;-64
2022/04/07 04:08:42;;;;;;;8.43;5.63;;;;;;;2.03;67.48;98328.75;5012372;28;20108;-63
2022/04/07 04:11:09;;;;;;;7.05;3.70;;;;;;;2.03;67.16;98334.22;5012266;28;20081;-63
2022/04/07 04:13:36;;;;;;;6.22;3.42;;;;;;;2.04;67.05;98322.94;5012484;28;20165;-63
2022/04/07 04:16:03;;;;;;;7.35;3.67;;;;;;;2.12;67.14;98335.13;5011762;28;20052;-64
2022/04/07 04:18:30;;;;;;;6.65;3.17;;;;;;;2.19;66.77;98321.84;5012107;28;20549;-62
2022/04/07 04:20:57;;;;;;;9.52;4.05;;;;;;;2.26;66.12;98336.75;5011994;28;20089;-63
2022/04/07 04:23:24;;;;;;;8.95;3.90;;;;;;;2.32;65.97;98331.94;5012232;28;20478;-65
2022/04/07 05:53:10;;;;;;;10.73;3.10;;;;;;;2.12;67.63;98291.25;5240825;22;20412;-67
2022/04/07 05:59:50;;;;;;;6.18;2.88;;;;;;;2.26;67.93;98281.88;5006559;28;20060;-64
2022/04/07 06:02:17;;;;;;;7.53;3.10;;;;;;;2.27;68.40;98274.44;5009055;28;20137;-63
2022/04/07 06:04:43;;;;;;;6.13;2.75;;;;;;;2.25;68.44;98260.25;5005968;28;20137;-63
2022/04/07 06:07:11;;;;;;;7.30;3.00;;;;;;;2.32;68.71;98249.63;5003288;28;20136;-62
2022/04/07 06:09:38;;;;;;;6.82;2.67;;;;;;;2.29;68.70;98253.00;5004465;28;20583;-63
2022/04/07 06:12:05;;;;;;;7.57;3.60;;;;;;;2.36;68.48;98239.66;5005690;28;20129;-63
2022/04/07 06:14:32;;;;;;;6.00;3.42;;;;;;;2.23;68.88;98237.78;5004746;28;20129;-64
2022/04/07 06:17:01;;;;;;;5.63;3.60;;;;;;;2.13;69.89;98252.53;5005617;28;20042;-64
2022/04/07 06:19:29;;;;;;;9.30;3.63;;;;;;;2.18;69.18;98248.88;5004005;28;20051;-65
2022/04/07 06:21:56;;;;;;;5.90;3.17;;;;;;;2.22;69.26;98255.38;5005942;28;20044;-64
2022/04/07 06:24:23;;;;;;;5.22;2.53;;;;;;;2.12;69.91;98241.88;5003901;28;20133;-64
2022/04/07 06:26:50;;;;;;;8.32;4.47;;;;;;;2.11;70.22;98251.25;5005528;28;20477;-64
2022/04/07 06:29:17;;;;;;;4.63;3.00;;;;;;;2.04;69.94;98253.59;5004793;28;20086;-64
2022/04/07 06:31:44;;;;;;;4.93;2.85;;;;;;;2.03;70.35;98249.22;5004271;28;20050;-63
2022/04/07 06:34:22;;;;;;;7.57;3.75;;;;;;;2.09;70.02;98242.50;5003986;28;20058;-63
2022/04/07 06:36:49;;;;;;;5.77;3.17;;;;;;;2.22;70.00;98242.44;5006020;28;20049;-64
2022/04/07 06:39:16;;;;;;;9.23;3.75;;;;;;;2.30;69.32;98254.63;5004866;28;20137;-62
2022/04/07 06:41:43;;;;;;;7.43;3.33;;;;;;;2.25;69.90;98244.56;5006510;28;20056;-64
2022/04/07 06:44:11;;;;;;;7.68;3.50;;;;;;;2.34;69.19;98250.94;5004915;28;20054;-65
2022/04/07 06:46:37;;;;;;;5.70;3.53;;;;;;;2.38;69.17;98253.88;5005902;28;20137;-63
2022/04/07 06:49:04;;;;;;;9.00;4.90;;;;;;;2.36;69.35;98231.41;5004768;28;20070;-63
2022/04/07 06:51:31;;;;;;;18.38;8.43;;;;;;;2.44;68.81;98244.41;5005705;28;20161;-63
2022/04/07 06:53:58;;;;;;;7.93;4.63;;;;;;;2.42;69.20;98260.34;5005574;28;20080;-64
2022/04/07 06:56:25;;;;;;;6.85;4.50;;;;;;;2.35;69.06;98227.06;5004160;28;20050;-64
2022/04/07 06:58:54;;;;;;;7.57;3.90;;;;;;;2.24;69.42;98244.88;5006297;28;20104;-64
2022/04/07 07:01:21;;;;;;;7.63;4.00;;;;;;;2.14;70.00;98237.72;5003411;28;20152;-63
2022/04/07 07:03:48;;;;;;;6.88;4.10;;;;;;;2.08;69.79;98238.13;4994375;28;20085;-64
2022/04/07 07:06:15;;;;;;;7.47;4.28;;;;;;;2.09;69.93;98215.88;4991281;28;20061;-64
2022/04/07 07:08:43;;;;;;;11.38;4.40;;;;;;;2.16;69.73;98224.50;4993369;28;20476;-64
2022/04/07 07:11:10;;;;;;;8.35;4.15;;;;;;;2.34;69.41;98219.97;4990904;28;20054;-64
2022/04/07 07:13:37;;;;;;;35.97;13.32;;;;;;;2.48;69.17;98218.78;4993581;28;20604;-63
2022/04/07 07:16:05;;;;;;;7.50;4.85;;;;;;;2.63;68.69;98223.09;4990776;28;20172;-65
2022/04/07 07:18:32;;;;;;;6.40;3.50;;;;;;;2.73;69.24;98237.38;4994365;28;20073;-63
2022/04/07 07:20:59;;;;;;;9.85;3.78;;;;;;;2.70;69.19;98213.28;4991449;28;20560;-63
2022/04/07 07:23:26;;;;;;;7.70;4.05;;;;;;;2.73;69.29;98215.41;4992495;28;20488;-63
2022/04/07 07:25:53;;;;;;;8.95;4.10;;;;;;;2.71;69.18;98214.06;4991651;28;20046;-63
2022/04/07 07:28:20;;;;;;;5.63;3.97;;;;;;;2.69;69.63;98200.66;4993266;28;20060;-63
2022/04/07 07:30:47;;;;;;;8.13;3.15;;;;;;;2.62;69.61;98213.22;4992520;28;20128;-59
2022/04/07 07:33:14;;;;;;;7.00;3.03;;;;;;;2.65;69.36;98207.91;4992172;28;20050;-60
2022/04/07 07:35:43;;;;;;;5.22;2.85;;;;;;;2.57;69.24;98202.38;4992638;28;20104;-60
2022/04/07 07:38:10;;;;;;;11.07;3.90;;;;;;;2.70;69.33;98201.47;4990917;28;20050;-61
2022/04/07 07:40:37;;;;;;;4.70;2.80;;;;;;;2.90;69.15;98185.25;4995092;28;20141;-61
2022/04/07 07:43:05;;;;;;;19.75;5.57;;;;;;;3.04;68.75;98207.97;4989431;28;20516;-62
2022/04/07 07:45:33;;;;;;;18.73;7.93;;;;;;;3.00;68.58;98200.66;4991903;28;20081;-62
2022/04/07 07:48:23;;;;;;;6.63;2.85;;;;;;;3.16;68.10;98199.94;4991411;28;20046;-61
2022/04/07 07:50:50;;;;;;;3.88;2.70;;;;;;;3.23;68.11;98175.53;4991686;28;20073;-61
2022/04/07 07:53:18;;;;;;;7.20;3.45;;;;;;;3.43;67.67;98182.38;4990078;28;20042;-60
2022/04/07 07:55:45;;;;;;;7.70;2.90;;;;;;;3.52;67.39;98200.53;4992745;28;20050;-61
2022/04/07 07:58:12;;;;;;;4.70;2.47;;;;;;;3.47;67.87;98183.38;4989176;28;20042;-61
2022/04/07 08:00:39;;;;;;;5.15;2.92;;;;;;;3.43;67.74;98185.97;4992991;28;20078;-61
2022/04/07 08:03:07;;;;;;;4.15;2.75;;;;;;;3.56;67.40;98178.72;4991422;28;20412;-61
2022/04/07 08:05:35;;;;;;;4.35;2.75;;;;;;;3.61;67.25;98187.63;4992224;28;20088;-62
2022/04/07 08:08:03;;;;;;;4.57;2.22;;;;;;;3.57;67.17;98178.41;4990396;28;20053;-62
2022/04/07 08:10:31;;;;;;;7.82;3.33;;;;;;;3.54;67.56;98179.03;4991840;28;20050;-61
2022/04/07 08:12:58;;;;;;;4.00;2.40;;;;;;;3.50;67.71;98183.53;4990050;28;20070;-61
2022/04/07 08:15:25;;;;;;;8.30;2.85;;;;;;;3.45;67.47;98191.97;4991287;28;20555;-61
2022/04/07 08:17:52;;;;;;;5.15;2.95;;;;;;;3.37;67.69;98167.16;4989253;28;20046;-62
2022/04/07 08:20:19;;;;;;;63.08;23.38;;;;;;;3.44;67.71;98170.28;4991988;28;20128;-61
2022/04/07 08:22:46;;;;;;;6.05;4.18;;;;;;;3.55;67.50;98168.84;4988193;28;20042;-62
2022/04/07 08:25:13;;;;;;;8.90;3.05;;;;;;;3.52;67.80;98194.22;4991702;28;20046;-61
2022/04/07 08:27:41;;;;;;;5.75;3.20;;;;;;;3.33;68.33;98171.69;4991205;28;20054;-61
2022/04/07 08:30:08;;;;;;;6.28;3.30;;;;;;;3.41;68.26;98168.19;4991657;28;20126;-61
2022/04/07 08:32:35;;;;;;;7.00;3.58;;;;;;;3.37;68.59;98146.00;4990040;28;20456;-61
2022/04/07 08:35:03;;;;;;;7.53;3.13;;;;;;;3.39;68.48;98153.94;4990316;28;20050;-61
2022/04/07 08:37:30;;;;;;;7.32;3.60;;;;;;;3.49;68.64;98153.63;4985836;28;20108;-60
2022/04/07 08:39:57;;;;;;;8.90;4.00;;;;;;;3.56;68.56;98165.75;4990896;28;20046;-60
2022/04/07 08:42:26;;;;;;;6.95;3.67;;;;;;;3.64;68.11;98151.22;4990538;28;20049;-61
2022/04/07 08:44:54;;;;;;;14.45;4.22;;;;;;;3.64;68.21;98134.72;4990027;28;20054;-61
2022/04/07 08:47:22;;;;;;;6.40;3.95;;;;;;;3.64;68.40;98139.41;4991640;28;20046;-60
2022/04/07 08:49:50;;;;;;;8.35;4.25;;;;;;;3.64;68.50;98136.66;4988509;28;20050;-61
2022/04/07 08:52:18;;;;;;;6.68;3.92;;;;;;;3.70;68.46;98132.63;4990455;28;20047;-61
2022/04/07 08:54:46;;;;;;;11.93;4.90;;;;;;;3.83;68.57;98128.94;4988326;28;20058;-62
2022/04/07 08:57:14;;;;;;;9.35;4.65;;;;;;;3.85;68.33;98128.59;4990505;28;20073;-61
2022/04/07 08:59:42;;;;;;;10.15;4.70;;;;;;;3.89;68.38;98124.06;4987299;28;20464;-61
2022/04/07 09:02:12;;;;;;;10.75;4.90;;;;;;;4.05;68.52;98112.25;4989268;28;20050;-62
2022/04/07 09:04:40;;;;;;;10.23;4.32;;;;;;;4.00;68.17;98112.44;4990340;28;20046;-62
2022/04/07 09:07:11;;;;;;;7.97;4.38;;;;;;;3.99;68.55;98132.00;4991323;28;20046;-62
2022/04/07 09:09:38;;;;;;;9.13;4.47;;;;;;;4.00;68.82;98115.19;4990433;28;20493;-62
2022/04/07 09:12:05;;;;;;;10.45;6.10;;;;;;;4.03;68.86;98110.97;4991633;28;20046;-63
2022/04/07 09:14:34;;;;;;;12.60;5.32;;;;;;;3.93;68.98;98114.84;4989396;28;20074;-62
2022/04/07 09:17:02;;;;;;;9.93;5.50;;;;;;;3.81;69.47;98133.94;4987400;28;20099;-61
2022/04/07 09:19:31;;;;;;;9.20;5.05;;;;;;;3.85;69.31;98126.69;4987847;28;20081;-62
2022/04/07 09:22:10;;;;;;;10.98;5.72;;;;;;;3.88;69.41;98127.97;4990574;28;20116;-61
2022/04/07 09:24:41;;;;;;;11.40;5.32;;;;;;;3.76;69.74;98126.66;4988900;28;20054;-61
2022/04/07 09:27:12;;;;;;;10.30;5.15;;;;;;;3.77;69.64;98116.47;4989760;28;20078;-61
2022/04/07 09:29:44;;;;;;;13.18;5.93;;;;;;;3.83;69.46;98108.84;4988245;28;20128;-62
2022/04/07 09:32:22;;;;;;;12.43;6.85;;;;;;;3.93;69.60;98101.09;4989897;28;20046;-62
2022/04/07 09:35:00;;;;;;;13.65;6.75;;;;;;;3.98;69.88;98100.13;4989010;28;20042;-60
2022/04/07 09:37:29;;;;;;;10.68;4.85;;;;;;;4.01;69.73;98107.72;4990223;28;20508;-62
2022/04/07 09:40:07;;;;;;;11.27;6.20;;;;;;;4.03;69.67;98100.78;4988187;28;20046;-65
2022/04/07 09:42:35;;;;;;;12.27;6.03;;;;;;;4.10;69.93;98083.75;4988624;28;20134;-62
2022/04/07 09:45:07;;;;;;;14.32;6.28;;;;;;;4.23;69.25;98086.31;4987880;28;20523;-61
2022/04/07 09:47:41;;;;;;;10.88;5.75;;;;;;;4.28;69.08;98077.91;4990133;28;20512;-61
2022/04/07 09:50:29;;;;;;;11.07;5.35;;;;;;;4.28;69.26;98088.91;4989220;28;20057;-61
2022/04/07 09:52:59;;;;;;;14.85;7.72;;;;;;;4.36;69.24;98071.56;4985130;28;20056;-62
2022/04/07 09:55:34;;;;;;;14.20;6.57;;;;;;;4.37;69.31;98086.94;4985673;28;20469;-61
2022/04/07 09:58:04;;;;;;;11.02;6.30;;;;;;;4.35;69.52;98072.69;4988082;28;20044;-62
2022/04/07 10:00:31;;;;;;;11.45;6.05;;;;;;;4.30;69.67;98078.38;4991366;28;20086;-61
2022/04/07 10:02:59;;;;;;;12.32;6.20;;;;;;;4.33;69.51;98068.66;4988827;28;20050;-61
2022/04/07 10:05:28;;;;;;;14.77;6.70;;;;;;;4.49;69.33;98062.28;4989728;28;20081;-61
2022/04/07 10:07:59;;;;;;;12.35;6.18;;;;;;;4.53;69.75;98071.50;4989332;28;20109;-61
2022/04/07 10:10:26;;;;;;;12.10;6.85;;;;;;;4.58;69.72;98062.25;4991940;28;20505;-63
2022/04/07 10:12:57;;;;;;;10.85;6.25;;;;;;;4.69;69.29;98067.09;4986224;28;20045;-62
2022/04/07 10:15:25;;;;;;;14.23;6.82;;;;;;;4.74;69.16;98058.63;4987298;28;20045;-61
2022/04/07 10:17:52;;;;;;;16.85;7.65;;;;;;;4.77;69.30;98055.19;4986817;28;20100;-62
2022/04/07 10:20:33;;;;;;;11.70;5.72;;;;;;;4.81;69.14;98050.66;4987281;28;20528;-62
2022/04/07 10:23:37;;;;;;;13.40;6.57;;;;;;;4.89;69.50;98055.31;4986218;28;20121;-62
2022/04/07 10:26:08;;;;;;;13.13;7.22;;;;;;;5.04;69.15;98051.97;4986130;28;20059;-60
2022/04/07 10:28:36;;;;;;;13.43;7.00;;;;;;;5.10;69.05;98050.66;4987441;28;20133;-62
2022/04/07 10:31:14;;;;;;;12.98;7.57;;;;;;;5.19;68.58;98054.19;4987886;28;20121;-63
2022/04/07 10:33:46;;;;;;;18.17;7.95;;;;;;;5.30;68.80;98060.91;4986320;28;20758;-63
2022/04/07 10:36:23;;;;;;;13.88;7.30;;;;;;;5.37;68.84;98055.69;4984636;28;20046;-62
2022/04/07 10:38:52;;;;;;;13.05;6.93;;;;;;;5.48;68.71;98067.13;4994116;28;20058;-62
2022/04/07 10:41:38;;;;;;;15.27;6.93;;;;;;;5.53;68.46;98062.22;4987836;28;20046;-63
2022/04/07 10:44:13;;;;;;;16.50;8.35;;;;;;;5.45;68.34;98054.81;4989535;28;20065;-62
2022/04/07 10:46:41;;;;;;;19.48;8.95;;;;;;;5.53;68.08;98047.59;4988996;28;20050;-61
2022/04/07 10:49:10;;;;;;;16.30;6.97;;;;;;;5.69;68.40;98048.63;4990269;28;20050;-61
2022/04/07 10:51:42;;;;;;;15.85;8.23;;;;;;;5.82;67.43;98044.00;4991602;28;20505;-63
2022/04/07 10:54:11;;;;;;;16.08;7.38;;;;;;;5.85;67.75;98043.31;4989050;28;20066;-65
2022/04/07 10:56:45;;;;;;;14.30;7.43;;;;;;;5.66;68.07;98044.56;4990153;28;20085;-66
2022/04/07 10:59:24;;;;;;;17.67;7.68;;;;;;;5.75;67.91;98035.44;4994035;28;20054;-66
2022/04/07 11:02:06;;;;;;;16.80;7.88;;;;;;;5.83;67.38;98031.81;4990863;28;20105;-67
2022/04/07 11:04:41;;;;;;;15.82;7.35;;;;;;;5.89;68.24;98034.03;4987270;28;20049;-65
2022/04/07 11:07:08;;;;;;;15.57;7.53;;;;;;;5.78;67.77;98023.72;4990513;28;20110;-64
2022/04/07 11:10:00;;;;;;;14.90;7.38;;;;;;;5.79;68.15;98012.34;4989876;28;20137;-64
2022/04/07 11:12:44;;;;;;;17.48;7.80;;;;;;;5.94;68.09;98024.72;4992757;28;20108;-65
2022/04/07 11:15:31;;;;;;;13.10;7.80;;;;;;;6.02;68.09;98012.81;4992575;28;20042;-67
2022/04/07 11:18:17;;;;;;;20.50;8.63;;;;;;;5.98;68.05;97998.88;4990131;28;20137;-68
2022/04/07 11:21:23;;;;;;;19.13;9.13;;;;;;;6.05;67.39;98003.84;4992871;28;20062;-67
2022/04/07 11:23:53;;;;;;;18.25;8.75;;;;;;;6.11;67.87;97999.72;4990539;28;20517;-66
2022/04/07 11:26:26;;;;;;;18.00;8.05;;;;;;;6.15;68.10;97998.69;4988011;28;20070;-63
2022/04/07 11:29:02;;;;;;;14.43;7.93;;;;;;;6.22;67.19;97992.63;4981893;28;20043;-62
2022/04/07 11:31:42;;;;;;;20.73;8.35;;;;;;;6.29;68.02;97998.38;4991343;28;20051;-62
2022/04/07 11:34:51;;;;;;;18.02;9.35;;;;;;;6.30;67.92;98006.31;4992207;28;20050;-62
2022/04/07 11:37:19;;;;;;;16.63;8.57;;;;;;;6.33;67.69;97997.34;4916211;29;20075;-61
2022/04/07 11:39:51;;;;;;;14.88;7.45;;;;;;;6.46;67.17;98000.94;4914094;29;20084;-68
2022/04/07 11:42:20;;;;;;;19.52;8.40;;;;;;;6.46;67.05;97989.91;4958792;28;20065;-62
2022/04/07 11:44:48;;;;;;;16.05;8.20;;;;;;;6.56;67.46;98008.78;4990510;28;20105;-61
2022/04/07 11:47:31;;;;;;;14.27;8.10;;;;;;;6.65;67.01;97992.91;4991704;28;20129;-64
2022/04/07 11:49:58;;;;;;;16.80;8.07;;;;;;;6.83;67.36;98000.63;4987649;28;20058;-65
2022/04/07 11:52:30;;;;;;;14.18;8.27;;;;;;;7.04;66.90;97987.47;4990586;28;20050;-61
2022/04/07 11:54:59;;;;;;;19.10;8.27;;;;;;;7.26;66.41;98000.00;4992208;28;20100;-63
2022/04/07 11:57:31;;;;;;;16.10;8.13;;;;;;;7.35;65.56;98007.00;4989825;28;20056;-63
2022/04/07 12:00:01;;;;;;;15.02;8.05;;;;;;;7.39;65.42;98005.19;4989357;28;20050;-63
2022/04/07 12:02:28;;;;;;;13.25;8.15;;;;;;;7.41;65.94;97993.75;4991110;28;20038;-63
2022/04/07 12:05:01;;;;;;;17.42;8.05;;;;;;;7.54;65.88;98000.88;4989865;28;20046;-63
2022/04/07 12:07:29;;;;;;;18.90;8.70;;;;;;;7.58;65.41;97990.69;4992667;28;20050;-64
2022/04/07 12:10:06;;;;;;;15.48;7.35;;;;;;;7.52;65.54;97989.31;4987168;28;20082;-69
2022/04/07 12:12:41;;;;;;;15.20;8.27;;;;;;;7.45;65.40;97992.72;4991703;28;20050;-69
2022/04/07 12:15:10;;;;;;;14.77;8.33;;;;;;;7.49;65.99;97998.31;4986544;28;20561;-69
2022/04/07 12:18:00;;;;;;;18.95;8.73;;;;;;;7.31;65.54;98003.34;4990235;28;20054;-68
2022/04/07 12:20:27;;;;;;;15.15;8.60;;;;;;;7.17;66.01;98002.88;4989926;28;20050;-68
2022/04/07 12:23:11;;;;;;;15.73;8.18;;;;;;;7.20;66.25;97993.91;4991726;28;20038;-62
2022/04/07 12:25:40;;;;;;;19.70;10.30;;;;;;;7.11;66.21;97986.91;4991372;28;20138;-70
2022/04/07 12:28:12;;;;;;;14.18;7.28;;;;;;;7.13;66.51;97999.22;4989852;28;20133;-69
2022/04/07 12:30:53;;;;;;;15.90;8.93;;;;;;;7.11;66.58;97990.47;4990011;28;20429;-69
2022/04/07 12:33:39;;;;;;;17.48;9.13;;;;;;;7.16;66.32;97983.88;4989916;28;20074;-69
2022/04/07 12:36:08;;;;;;;17.90;8.70;;;;;;;7.21;66.11;97983.66;4984445;28;20461;-68
2022/04/07 12:38:35;;;;;;;15.63;8.73;;;;;;;7.33;66.19;97964.25;4992086;28;20470;-70
2022/04/07 12:41:13;;;;;;;16.65;8.15;;;;;;;7.45;65.70;97972.53;4993627;28;20153;-69
2022/04/07 12:43:51;;;;;;;15.48;7.93;;;;;;;7.58;65.37;97971.31;4989875;28;20487;-70
2022/04/07 12:46:19;;;;;;;17.27;7.80;;;;;;;7.71;64.97;97972.91;4991980;28;20109;-68
2022/04/07 12:49:06;;;;;;;17.25;8.82;;;;;;;7.90;64.72;97970.28;4989939;28;20448;-69
2022/04/07 12:51:37;;;;;;;15.82;8.32;;;;;;;7.98;64.52;97966.56;4990612;28;20073;-70
2022/04/07 12:54:06;;;;;;;16.38;9.07;;;;;;;8.04;64.17;97959.59;4991103;28;20788;-71
2022/04/07 12:56:35;;;;;;;16.77;7.75;;;;;;;8.09;64.10;97962.13;4990449;28;20058;-70
2022/04/07 12:59:05;;;;;;;14.38;7.85;;;;;;;8.07;64.37;97958.06;4990690;28;20132;-70
2022/04/07 13:01:32;;;;;;;18.08;8.80;;;;;;;7.93;64.33;97950.19;4990119;28;20480;-69
2022/04/07 13:04:00;;;;;;;15.98;8.55;;;;;;;7.83;64.82;97947.94;4992018;28;20054;-69
2022/04/07 13:06:27;;;;;;;28.17;13.68;;;;;;;7.80;65.08;97954.19;4991524;28;20054;-69
2022/04/07 13:08:54;;;;;;;14.75;8.60;;;;;;;7.84;64.76;97938.47;4990940;28;20120;-70
2022/04/07 13:11:35;;;;;;;21.23;8.65;;;;;;;7.97;64.53;97944.75;4991140;28;20086;-69
2022/04/07 13:14:05;;;;;;;14.52;8.07;;;;;;;8.00;64.30;97936.56;4992183;28;20073;-70
2022/04/07 13:16:34;;;;;;;18.88;7.90;;;;;;;8.03;64.28;97943.34;4990673;28;20069;-70
2022/04/07 13:19:03;;;;;;;17.17;8.82;;;;;;;8.05;64.32;97933.50;4990560;28;20050;-69
2022/04/07 13:21:33;;;;;;;17.35;8.10;;;;;;;8.06;64.41;97937.91;4990679;28;20504;-70
2022/04/07 13:24:00;;;;;;;15.93;8.95;;;;;;;8.11;63.95;97932.09;4989921;28;20054;-70